Home   Weather   Finland   Rovaniemi   Past weeks
Flag for Finland

Past Weather in Rovaniemi, Finland — Yesterday and Last 2 Weeks

Currently: 81 °F. Sunny. (Weather station: Rovaniemi Airport, Finland). See more current weather

Past Weather in Rovaniemi — Graph

°F

Rovaniemi Temperature Yesterday

Maximum temperature yesterday: 81 °F (at 5:20 pm)
Minimum temperature yesterday: 57 °F (at 3:50 am)
Average temperature yesterday: 70 °F

High & Low Weather Summary for the Past Weeks

 TemperatureHumidityPressure
High81 °F (Jun 25, 5:20 pm)100% (Jun 16, 1:20 pm)30.07 "Hg (Jun 16, 1:20 pm)
Low43 °F (Jun 16, 3:50 am)37% (Jun 21, 3:50 pm)29.53 "Hg (Jun 19, 5:50 am)
Average57 °F66%29.74 "Hg
* Reported Jun 11 7:20 pm — Jun 26 7:20 pm, Rovaniemi. Weather by CustomWeather, © 2022

Note: Actual official high and low records may vary slightly from our data, if they occured in-between our weather recording intervals... More about our weather records

Rovaniemi Weather History for the Previous 24 Hours

Scroll right to see more
 ConditionsComfort  
Time TempWeatherWind HumidityBarometerVisibility
7:20 pm
Sun, Jun 26
81 °FScattered showers. Cloudy.3 mph42%30.07 "HgN/A
6:50 pm81 °FPassing clouds.5 mph42%30.07 "HgN/A
6:20 pm81 °FPassing clouds.5 mph42%30.07 "HgN/A
5:50 pm81 °FScattered showers. Cloudy.2 mph42%30.07 "HgN/A
5:20 pm81 °FScattered showers. Cloudy.6 mph45%30.07 "HgN/A
4:50 pm81 °FScattered showers. Cloudy.7 mph42%30.07 "HgN/A
4:20 pm81 °FScattered showers. Cloudy.6 mph45%30.07 "HgN/A
3:50 pm81 °FSunny.5 mph45%30.07 "Hg10 mi
3:20 pm81 °FPassing clouds.5 mph48%30.07 "HgN/A
2:20 pm79 °FPassing clouds.6 mph48%30.07 "HgN/A
1:50 pm79 °FPassing clouds.6 mph48%30.07 "HgN/A
1:20 pm79 °FPassing clouds.7 mph48%30.07 "HgN/A
12:50 pm77 °FPassing clouds.6 mph47%30.07 "HgN/A
12:20 pm77 °FSunny.5 mph51%30.04 "Hg10 mi
11:20 am75 °FPassing clouds.6 mph54%30.04 "HgN/A
10:20 am70 °FPassing clouds.7 mph64%30.04 "HgN/A
9:50 am68 °FPassing clouds.6 mph69%30.04 "HgN/A
9:20 am66 °FPassing clouds.5 mph73%30.04 "HgN/A
8:50 am64 °FPassing clouds.8 mph78%30.04 "HgN/A
8:20 am64 °FSunny.2 mph78%30.04 "Hg10 mi
7:50 am63 °FSunny.2 mph83%30.04 "Hg10 mi
7:20 am61 °FSunny.3 mph88%30.04 "Hg10 mi
6:20 am59 °FPassing clouds.6 mph88%30.01 "HgN/A
5:50 am59 °FPassing clouds.9 mph88%30.01 "HgN/A
5:20 am59 °FPassing clouds.6 mph88%30.01 "HgN/A
4:20 am57 °FSunny.6 mph88%30.01 "Hg10 mi
3:50 am59 °FSunny.8 mph82%30.01 "Hg10 mi
2:20 am63 °FSunny.8 mph73%30.01 "Hg10 mi
1:50 am63 °FSunny.9 mph73%30.01 "Hg10 mi
1:20 am63 °FSunny.9 mph73%30.01 "Hg10 mi
12:50 am64 °FSunny.12 mph68%30.01 "Hg10 mi
12:20 am64 °FSunny.8 mph68%30.01 "Hg10 mi
11:50 pm
Sat, Jun 25
66 °FSunny.8 mph64%30.01 "Hg10 mi
10:50 pm68 °FSunny.12 mph60%30.01 "Hg10 mi
10:20 pm72 °FSunny.13 mph53%30.01 "Hg10 mi
9:50 pm72 °FSunny.10 mph50%30.01 "Hg10 mi
9:20 pm73 °FPassing clouds.10 mph47%30.01 "HgN/A
8:20 pm75 °FSunny.13 mph44%30.01 "Hg10 mi
Weather by CustomWeather, © 2022

See weather overview